TimeEST,TemperatureF,Dew PointF,Humidity,Sea Level PressureIn,VisibilityMPH,Wind Direction,Wind SpeedMPH,Gust SpeedMPH,PrecipitationIn,Events,Conditions,WindDirDegrees,DateUTC
12:15 AM,30.2,14.0,51,30.06,10.0,NNW,16.1,27.6,N/A,,Mostly Cloudy,340,2012-12-06 05:15:00
12:35 AM,30.2,14.0,51,30.07,10.0,NNW,13.8,20.7,N/A,,Scattered Clouds,330,2012-12-06 05:35:00
12:55 AM,30.2,14.0,51,30.07,10.0,NNW,12.7,21.9,N/A,,Mostly Cloudy,330,2012-12-06 05:55:00
1:35 AM,30.2,15.8,55,30.10,10.0,NNW,20.7,29.9,N/A,,Partly Cloudy,340,2012-12-06 06:35:00
2:35 AM,30.2,12.2,47,30.11,10.0,NNW,15.0,24.2,N/A,,Clear,330,2012-12-06 07:35:00
4:35 AM,28.4,12.2,51,30.16,10.0,NNW,19.6,24.2,N/A,,Clear,340,2012-12-06 09:35:00
4:55 AM,28.4,12.2,51,30.16,10.0,NNW,19.6,25.3,N/A,,Clear,330,2012-12-06 09:55:00
5:15 AM,28.4,12.2,51,30.17,10.0,NNW,12.7,24.2,N/A,,Clear,340,2012-12-06 10:15:00
5:35 AM,28.4,12.2,51,30.18,10.0,NNW,17.3,23.0,N/A,,Clear,340,2012-12-06 10:35:00
5:55 AM,28.4,12.2,51,30.18,10.0,NNW,12.7,24.2,N/A,,Clear,330,2012-12-06 10:55:00
6:15 AM,28.4,12.2,51,30.20,10.0,NNW,13.8,23.0,N/A,,Clear,340,2012-12-06 11:15:00
6:35 AM,26.6,12.2,55,30.21,10.0,NW,10.4,-,N/A,,Clear,320,2012-12-06 11:35:00
7:15 AM,26.6,12.2,55,30.22,10.0,NNW,8.1,-,N/A,,Clear,330,2012-12-06 12:15:00
7:35 AM,26.6,14.0,59,30.23,10.0,NW,8.1,-,N/A,,Clear,320,2012-12-06 12:35:00
7:55 AM,26.6,12.2,55,30.23,10.0,NW,10.4,-,N/A,,Clear,320,2012-12-06 12:55:00
8:15 AM,28.4,14.0,55,30.24,10.0,NW,10.4,-,N/A,,Clear,310,2012-12-06 13:15:00
8:35 AM,28.4,14.0,55,30.25,10.0,NNW,6.9,-,N/A,,Clear,340,2012-12-06 13:35:00
8:55 AM,28.4,14.0,55,30.25,10.0,NNW,9.2,-,N/A,,Clear,330,2012-12-06 13:55:00
9:15 AM,30.2,12.2,47,30.26,10.0,NNW,13.8,-,N/A,,Clear,330,2012-12-06 14:15:00
9:35 AM,30.2,15.8,55,30.27,10.0,NW,9.2,-,N/A,,Clear,320,2012-12-06 14:35:00
9:55 AM,30.2,12.2,47,30.28,10.0,NW,12.7,18.4,N/A,,Clear,310,2012-12-06 14:55:00
10:15 AM,32.0,12.2,44,30.28,10.0,NNW,13.8,-,N/A,,Clear,330,2012-12-06 15:15:00
10:35 AM,33.8,14.0,44,30.27,10.0,NW,8.1,-,N/A,,Clear,310,2012-12-06 15:35:00
10:55 AM,33.8,12.2,41,30.26,10.0,NNW,9.2,-,N/A,,Clear,340,2012-12-06 15:55:00
11:15 AM,33.8,14.0,44,30.26,10.0,NNW,12.7,-,N/A,,Clear,330,2012-12-06 16:15:00
11:35 AM,33.8,12.2,41,30.25,10.0,WNW,10.4,19.6,N/A,,Clear,300,2012-12-06 16:35:00
11:55 AM,35.6,12.2,38,30.25,10.0,NNW,15.0,19.6,N/A,,Clear,340,2012-12-06 16:55:00
12:15 PM,35.6,12.2,38,30.24,10.0,NNW,15.0,-,N/A,,Clear,330,2012-12-06 17:15:00
12:35 PM,35.6,12.2,38,30.23,10.0,North,10.4,-,N/A,,Clear,360,2012-12-06 17:35:00
12:55 PM,35.6,12.2,38,30.22,10.0,NNW,12.7,16.1,N/A,,Clear,330,2012-12-06 17:55:00
1:16 PM,35.6,12.2,38,30.22,10.0,NNW,9.2,-,N/A,,Clear,340,2012-12-06 18:16:00
1:55 PM,37.4,14.0,38,30.22,10.0,NNE,10.4,-,N/A,,Clear,20,2012-12-06 18:55:00
2:15 PM,37.4,12.2,36,30.23,10.0,North,8.1,-,N/A,,Clear,360,2012-12-06 19:15:00
2:35 PM,37.4,12.2,36,30.24,10.0,North,6.9,-,N/A,,Clear,360,2012-12-06 19:35:00
2:55 PM,37.4,12.2,36,30.24,10.0,NNE,4.6,-,N/A,,Clear,20,2012-12-06 19:55:00
3:15 PM,37.4,10.4,33,30.25,10.0,Calm,Calm,-,N/A,,Clear,0,2012-12-06 20:15:00
3:35 PM,37.4,12.2,36,30.25,10.0,WNW,5.8,-,N/A,,Clear,290,2012-12-06 20:35:00
3:55 PM,35.6,10.4,35,30.26,10.0,NNW,3.5,-,N/A,,Clear,330,2012-12-06 20:55:00
4:15 PM,35.6,10.4,35,30.26,10.0,North,5.8,-,N/A,,Clear,360,2012-12-06 21:15:00
4:35 PM,33.8,10.4,38,30.26,10.0,NNE,4.6,-,N/A,,Clear,20,2012-12-06 21:35:00
4:55 PM,30.2,10.4,44,30.26,10.0,Calm,Calm,-,N/A,,Clear,0,2012-12-06 21:55:00
5:16 PM,28.4,12.2,51,30.26,10.0,Calm,Calm,-,N/A,,Clear,0,2012-12-06 22:16:00
5:35 PM,28.4,14.0,55,30.26,10.0,NNW,4.6,-,N/A,,Clear,340,2012-12-06 22:35:00
5:55 PM,26.6,14.0,59,30.27,10.0,Calm,Calm,-,N/A,,Clear,0,2012-12-06 22:55:00
6:15 PM,28.4,12.2,51,30.27,10.0,Calm,Calm,-,N/A,,Clear,0,2012-12-06 23:15:00
6:35 PM,24.8,12.2,59,30.26,10.0,ENE,3.5,-,N/A,,Clear,70,2012-12-06 23:35:00
6:55 PM,24.8,15.8,69,30.28,10.0,Calm,Calm,-,N/A,,Clear,0,2012-12-06 23:55:00
7:15 PM,24.8,15.8,69,30.28,10.0,Calm,Calm,-,N/A,,Clear,0,2012-12-07 00:15:00
7:35 PM,26.6,15.8,64,30.27,10.0,Calm,Calm,-,N/A,,Clear,0,2012-12-07 00:35:00
7:55 PM,21.2,12.2,68,30.28,10.0,Calm,Calm,-,N/A,,Clear,0,2012-12-07 00:55:00
8:15 PM,24.8,14.0,64,30.28,10.0,Calm,Calm,-,N/A,,Clear,0,2012-12-07 01:15:00
8:35 PM,21.2,14.0,74,30.28,10.0,Calm,Calm,-,N/A,,Clear,0,2012-12-07 01:35:00
8:55 PM,23.0,15.8,74,30.28,10.0,Calm,Calm,-,N/A,,Clear,0,2012-12-07 01:55:00
9:35 PM,21.2,15.8,80,30.28,10.0,Calm,Calm,-,N/A,,Clear,0,2012-12-07 02:35:00
9:55 PM,21.2,15.8,80,30.28,10.0,Calm,Calm,-,N/A,,Clear,0,2012-12-07 02:55:00
10:15 PM,21.2,15.8,80,30.28,10.0,Calm,Calm,-,N/A,,Clear,0,2012-12-07 03:15:00
10:35 PM,21.2,15.8,80,30.28,9.0,Calm,Calm,-,N/A,,Clear,0,2012-12-07 03:35:00
10:55 PM,19.4,15.8,86,30.28,10.0,Calm,Calm,-,N/A,,Clear,0,2012-12-07 03:55:00
11:15 PM,19.4,15.8,86,30.28,10.0,Calm,Calm,-,N/A,,Clear,0,2012-12-07 04:15:00
11:35 PM,21.2,15.8,80,30.28,10.0,Calm,Calm,-,N/A,,Clear,0,2012-12-07 04:35:00
11:55 PM,21.2,17.6,86,30.27,10.0,Calm,Calm,-,N/A,,Clear,0,2012-12-07 04:55:00